Time;durP1;ratioP1;P1;durP2;ratioP2;P2;SDS_P1;SDS_P2;PMS_P1;PMS_P2;Temp;Humidity;BMP_temperature;BMP_pressure;BME280_temperature;BME280_humidity;BME280_pressure;Samples;Min_cycle;Max_cycle;Signal;HPM_P1;HPM_P2
2021/03/30 00:01:39;;;;;;;12.52;5.07;;;11.10;99.90;;;;;;5047205;28;20057;-74
2021/03/30 00:04:04;;;;;;;13.10;5.25;;;11.10;99.90;;;;;;5045655;28;20165;-73
2021/03/30 00:06:30;;;;;;;14.57;5.60;;;11.10;99.90;;;;;;5046496;28;20036;-73
2021/03/30 00:08:55;;;;;;;13.52;4.82;;;11.10;99.90;;;;;;5046640;28;20036;-73
2021/03/30 00:11:21;;;;;;;12.18;5.07;;;11.00;99.90;;;;;;5045322;28;20022;-72
2021/03/30 00:13:47;;;;;;;10.48;5.32;;;11.00;99.90;;;;;;5039169;28;20018;-72
2021/03/30 00:16:13;;;;;;;8.27;4.72;;;11.00;99.90;;;;;;5026854;28;20030;-72
2021/03/30 00:18:38;;;;;;;19.55;6.07;;;11.00;99.90;;;;;;5026981;28;20042;-72
2021/03/30 00:21:04;;;;;;;14.73;4.63;;;10.90;99.90;;;;;;5026732;28;20036;-73
2021/03/30 00:23:30;;;;;;;22.92;5.70;;;10.90;99.90;;;;;;5026436;28;20022;-71
2021/03/30 00:25:56;;;;;;;24.00;4.90;;;10.80;99.90;;;;;;5026697;28;20026;-71
2021/03/30 00:28:21;;;;;;;15.68;5.55;;;10.80;99.90;;;;;;5026708;28;20022;-71
2021/03/30 00:30:47;;;;;;;9.25;4.40;;;10.80;99.90;;;;;;5026681;28;20054;-72
2021/03/30 00:33:13;;;;;;;14.98;4.20;;;10.70;99.90;;;;;;5044531;28;20252;-74
2021/03/30 00:35:39;;;;;;;16.25;4.57;;;10.70;99.90;;;;;;5046421;28;20041;-74
2021/03/30 00:38:07;;;;;;;7.57;3.78;;;10.70;99.90;;;;;;5046436;28;20026;-73
2021/03/30 00:40:32;;;;;;;14.93;4.45;;;10.70;99.90;;;;;;5046110;28;20021;-73
2021/03/30 00:42:58;;;;;;;9.13;4.32;;;10.80;99.90;;;;;;5044786;28;20064;-72
2021/03/30 00:45:24;;;;;;;6.38;3.80;;;10.80;99.90;;;;;;5046097;28;20030;-72
2021/03/30 00:47:49;;;;;;;14.63;5.43;;;10.80;99.90;;;;;;5046055;28;20029;-72
2021/03/30 00:50:25;;;;;;;11.63;4.93;;;10.70;99.90;;;;;;5045944;28;20041;-74
2021/03/30 00:52:51;;;;;;;7.22;4.10;;;10.70;99.90;;;;;;5045955;28;20057;-72
2021/03/30 00:55:17;;;;;;;11.77;4.82;;;10.70;99.90;;;;;;5045726;28;20058;-74
2021/03/30 00:57:43;;;;;;;11.52;4.75;;;10.60;99.90;;;;;;5045965;28;20092;-74
2021/03/30 01:00:11;;;;;;;11.05;4.18;;;10.60;99.90;;;;;;5045877;28;20021;-73
2021/03/30 01:02:38;;;;;;;10.77;4.28;;;10.60;99.90;;;;;;5044606;28;20045;-73
2021/03/30 01:05:06;;;;;;;12.10;4.15;;;10.60;99.90;;;;;;5044501;28;20041;-73
2021/03/30 01:07:33;;;;;;;9.23;3.90;;;10.60;99.90;;;;;;5045729;28;20098;-72
2021/03/30 01:10:27;;;;;;;8.77;4.43;;;10.50;99.90;;;;;;5045524;28;20108;-73
2021/03/30 01:13:21;;;;;;;14.88;4.63;;;10.50;99.90;;;;;;5045488;28;20033;-72
2021/03/30 01:16:07;;;;;;;8.18;4.63;;;10.40;99.90;;;;;;5045150;28;20022;-71
2021/03/30 01:18:43;;;;;;;15.90;5.63;;;10.30;99.90;;;;;;5044622;28;20056;-73
2021/03/30 01:21:30;;;;;;;11.30;5.13;;;10.30;99.90;;;;;;5045545;28;20025;-74
2021/03/30 01:24:04;;;;;;;8.13;4.10;;;10.20;99.90;;;;;;5043816;28;20457;-73
2021/03/30 01:26:49;;;;;;;11.15;4.45;;;10.20;99.90;;;;;;5045443;28;20081;-71
2021/03/30 01:29:25;;;;;;;6.18;4.10;;;10.10;99.90;;;;;;5045133;28;20049;-73
2021/03/30 01:32:01;;;;;;;16.45;4.20;;;10.10;99.90;;;;;;5045144;28;20040;-73
2021/03/30 01:34:28;;;;;;;26.67;4.55;;;10.10;99.90;;;;;;5045067;28;20048;-71
2021/03/30 01:36:56;;;;;;;8.50;4.47;;;10.10;99.90;;;;;;5045108;28;20060;-72
2021/03/30 01:39:25;;;;;;;9.55;4.35;;;10.00;99.90;;;;;;5045104;28;20026;-72
2021/03/30 01:41:52;;;;;;;13.73;4.57;;;10.10;99.90;;;;;;5043756;28;20041;-72
2021/03/30 01:44:19;;;;;;;10.98;5.05;;;10.00;99.90;;;;;;5045002;28;20036;-72
2021/03/30 01:46:46;;;;;;;10.88;4.60;;;10.00;99.90;;;;;;5045048;28;20033;-71
2021/03/30 01:49:13;;;;;;;7.25;4.68;;;10.00;99.90;;;;;;5044857;28;20054;-73
2021/03/30 01:51:41;;;;;;;12.15;4.20;;;10.00;99.90;;;;;;5044916;28;20041;-73
2021/03/30 01:54:08;;;;;;;9.27;4.47;;;10.00;99.90;;;;;;5043694;28;20021;-72
2021/03/30 01:56:35;;;;;;;10.15;4.57;;;10.00;99.90;;;;;;5045158;28;20415;-72
2021/03/30 01:59:03;;;;;;;14.57;5.03;;;10.00;99.90;;;;;;5043545;28;20516;-72
2021/03/30 02:01:30;;;;;;;12.38;5.28;;;10.00;99.90;;;;;;5044654;28;20041;-72
2021/03/30 02:03:59;;;;;;;11.18;5.55;;;10.00;99.90;;;;;;5044804;28;20026;-73
2021/03/30 02:06:28;;;;;;;8.43;4.75;;;10.00;99.90;;;;;;5044832;28;20018;-71
2021/03/30 02:08:58;;;;;;;14.10;5.75;;;10.00;99.90;;;;;;5044666;28;20083;-73
2021/03/30 02:11:29;;;;;;;10.68;5.47;;;10.00;99.90;;;;;;5044758;28;20060;-71
2021/03/30 02:13:58;;;;;;;11.20;4.80;;;10.00;99.90;;;;;;5043283;28;20540;-71
2021/03/30 02:16:44;;;;;;;10.15;4.90;;;10.00;99.90;;;;;;5044536;28;20029;-72
2021/03/30 02:19:15;;;;;;;12.80;5.10;;;9.90;99.90;;;;;;5044662;28;20067;-72
2021/03/30 02:21:52;;;;;;;11.82;5.50;;;9.90;99.90;;;;;;5043264;28;20037;-71
2021/03/30 02:24:20;;;;;;;14.10;5.22;;;9.90;99.90;;;;;;5044289;28;20417;-72
2021/03/30 02:26:49;;;;;;;19.67;5.40;;;9.90;99.90;;;;;;5044877;28;20029;-72
2021/03/30 02:29:21;;;;;;;8.07;5.18;;;9.80;99.90;;;;;;5044835;28;20056;-71
2021/03/30 02:31:51;;;;;;;17.80;5.55;;;9.80;99.90;;;;;;5048615;28;20024;-73
2021/03/30 02:34:18;;;;;;;8.15;4.68;;;9.80;99.90;;;;;;5048497;28;20033;-73
2021/03/30 02:36:46;;;;;;;14.85;4.88;;;9.80;99.90;;;;;;5048810;28;20026;-72
2021/03/30 02:39:14;;;;;;;11.30;5.82;;;9.70;99.90;;;;;;5047204;28;20048;-73
2021/03/30 02:41:42;;;;;;;17.02;7.05;;;9.70;99.90;;;;;;5048445;28;20505;-73
2021/03/30 02:44:10;;;;;;;25.85;6.70;;;9.70;99.90;;;;;;5048471;28;20036;-73
2021/03/30 02:46:38;;;;;;;20.58;5.97;;;9.60;99.90;;;;;;5048286;28;20028;-74
2021/03/30 02:49:04;;;;;;;10.82;5.07;;;9.60;99.90;;;;;;5047157;28;20029;-72
2021/03/30 02:51:31;;;;;;;11.43;5.30;;;9.60;99.90;;;;;;5048504;28;20055;-72
2021/03/30 02:53:59;;;;;;;33.55;7.05;;;9.60;99.90;;;;;;5048103;28;20025;-73
2021/03/30 02:56:24;;;;;;;18.02;5.88;;;9.60;99.90;;;;;;5048209;28;20085;-72
2021/03/30 02:58:51;;;;;;;10.02;4.35;;;9.50;99.90;;;;;;5046662;28;20029;-73
2021/03/30 03:01:17;;;;;;;15.27;5.68;;;9.50;99.90;;;;;;5047869;28;20588;-72
2021/03/30 03:03:45;;;;;;;22.75;5.35;;;9.50;99.90;;;;;;5046792;28;20025;-73
2021/03/30 03:06:12;;;;;;;12.50;5.93;;;9.40;99.90;;;;;;5048139;28;20100;-73
2021/03/30 03:08:39;;;;;;;13.25;5.40;;;9.40;99.90;;;;;;5046905;28;20021;-73
2021/03/30 03:11:06;;;;;;;8.93;5.45;;;9.40;99.90;;;;;;5047860;28;20026;-73
2021/03/30 03:13:32;;;;;;;19.45;6.78;;;9.30;99.90;;;;;;5047799;28;20029;-72
2021/03/30 03:15:58;;;;;;;10.77;5.90;;;9.30;99.90;;;;;;5047460;28;20040;-72
2021/03/30 03:18:24;;;;;;;13.93;6.38;;;9.30;99.90;;;;;;5046164;28;20049;-72
2021/03/30 03:20:50;;;;;;;13.32;6.15;;;9.30;99.90;;;;;;5046228;28;20079;-73
2021/03/30 03:23:17;;;;;;;13.65;6.22;;;9.30;99.90;;;;;;5047621;28;20037;-74
2021/03/30 03:25:46;;;;;;;17.48;6.03;;;9.30;99.90;;;;;;5046536;28;20048;-74
2021/03/30 03:28:12;;;;;;;18.17;6.70;;;9.30;99.90;;;;;;5046341;28;20099;-73
2021/03/30 03:30:42;;;;;;;17.08;6.72;;;9.20;99.90;;;;;;5046380;28;20056;-74
2021/03/30 03:33:13;;;;;;;20.52;5.80;;;9.10;99.90;;;;;;5046308;28;20030;-72
2021/03/30 03:35:40;;;;;;;13.68;6.78;;;9.20;99.90;;;;;;5047597;28;20029;-73
2021/03/30 03:38:06;;;;;;;11.18;5.85;;;9.10;99.90;;;;;;5047267;28;20087;-72
2021/03/30 03:40:35;;;;;;;13.75;5.93;;;9.10;99.90;;;;;;5046654;28;20040;-72
2021/03/30 03:43:01;;;;;;;13.40;5.97;;;9.10;99.90;;;;;;5047278;28;20034;-73
2021/03/30 03:45:27;;;;;;;21.50;6.55;;;9.10;99.90;;;;;;5046973;28;20075;-73
2021/03/30 03:47:52;;;;;;;12.95;6.10;;;9.20;99.90;;;;;;5047193;28;20025;-74
2021/03/30 03:50:19;;;;;;;17.10;7.05;;;9.20;99.90;;;;;;5047130;28;20109;-72
2021/03/30 03:52:48;;;;;;;15.88;5.90;;;9.20;99.90;;;;;;5047143;28;20085;-74
2021/03/30 03:55:16;;;;;;;14.32;6.70;;;9.20;99.90;;;;;;5047061;28;20029;-73
2021/03/30 03:57:55;;;;;;;15.50;5.97;;;9.20;99.90;;;;;;5047152;28;20028;-73
2021/03/30 04:00:23;;;;;;;9.45;4.82;;;9.20;99.90;;;;;;5045757;28;20037;-72
2021/03/30 04:03:00;;;;;;;20.02;6.30;;;9.20;99.90;;;;;;5046903;28;20037;-72
2021/03/30 04:05:39;;;;;;;10.23;5.82;;;9.20;99.90;;;;;;5047006;28;20097;-72
2021/03/30 04:08:09;;;;;;;16.98;5.00;;;9.20;99.90;;;;;;5047220;28;20063;-72
2021/03/30 04:10:36;;;;;;;14.23;6.25;;;9.20;99.90;;;;;;5046814;28;20044;-72
2021/03/30 04:13:04;;;;;;;16.67;6.00;;;9.10;99.90;;;;;;5046657;28;20030;-73
2021/03/30 04:15:30;;;;;;;11.30;5.25;;;9.20;99.90;;;;;;5045167;28;20029;-72
2021/03/30 04:17:56;;;;;;;12.98;5.22;;;9.20;99.90;;;;;;5046643;28;20430;-75
2021/03/30 04:20:22;;;;;;;11.25;5.40;;;9.20;99.90;;;;;;5046520;28;20033;-73
2021/03/30 04:23:06;;;;;;;14.30;6.13;;;9.20;99.90;;;;;;5045105;28;20073;-72
2021/03/30 04:25:32;;;;;;;15.20;6.57;;;9.10;99.90;;;;;;5046596;28;20029;-72
2021/03/30 04:27:57;;;;;;;12.60;5.57;;;9.20;99.90;;;;;;5046654;28;20034;-72
2021/03/30 04:30:24;;;;;;;11.73;5.38;;;9.20;99.90;;;;;;5046492;28;20032;-72
2021/03/30 04:32:51;;;;;;;11.30;5.13;;;9.20;99.90;;;;;;5046456;28;20037;-73
2021/03/30 04:35:16;;;;;;;10.20;4.88;;;9.10;99.90;;;;;;5046567;28;20151;-73
2021/03/30 04:37:42;;;;;;;14.60;5.85;;;9.10;99.90;;;;;;5046512;28;20359;-72
2021/03/30 04:40:11;;;;;;;20.30;5.63;;;9.10;99.90;;;;;;5046450;28;20040;-73
2021/03/30 04:42:37;;;;;;;20.98;6.00;;;9.10;99.90;;;;;;5046345;28;20548;-72
2021/03/30 04:45:05;;;;;;;15.23;6.47;;;9.10;99.90;;;;;;5046159;28;20044;-72
2021/03/30 04:47:31;;;;;;;8.90;5.05;;;9.10;99.90;;;;;;5045699;28;20037;-71
2021/03/30 04:49:56;;;;;;;13.07;5.50;;;9.00;99.90;;;;;;5044857;28;20032;-72
2021/03/30 04:52:22;;;;;;;10.98;5.20;;;9.00;99.90;;;;;;5043913;28;20072;-72
2021/03/30 04:54:48;;;;;;;12.50;6.20;;;9.00;99.90;;;;;;5046060;28;20034;-72
2021/03/30 04:57:14;;;;;;;11.48;5.10;;;9.00;99.90;;;;;;5046018;28;20517;-71
2021/03/30 04:59:40;;;;;;;10.35;4.25;;;9.00;99.90;;;;;;5045802;28;20037;-73
2021/03/30 05:02:05;;;;;;;9.82;4.60;;;9.00;99.90;;;;;;5044513;28;20041;-71
2021/03/30 05:04:31;;;;;;;14.52;5.00;;;9.00;99.90;;;;;;5045612;28;20033;-73
2021/03/30 05:06:57;;;;;;;9.88;4.80;;;9.00;99.90;;;;;;5045749;28;20044;-72
2021/03/30 05:09:22;;;;;;;11.73;4.38;;;9.00;99.90;;;;;;5045465;28;20033;-70
2021/03/30 05:11:48;;;;;;;10.48;4.90;;;9.00;99.90;;;;;;5044217;28;20030;-71
2021/03/30 05:14:13;;;;;;;8.60;4.45;;;8.90;99.90;;;;;;5045463;28;20030;-72
2021/03/30 05:16:39;;;;;;;15.02;5.50;;;9.00;99.90;;;;;;5045146;28;20026;-72
2021/03/30 05:19:05;;;;;;;8.52;4.80;;;9.00;99.90;;;;;;5045018;28;20056;-71
2021/03/30 05:21:30;;;;;;;8.73;4.50;;;9.00;99.90;;;;;;5042812;28;20519;-72
2021/03/30 05:23:56;;;;;;;12.02;4.85;;;9.10;99.90;;;;;;5044479;28;20024;-73
2021/03/30 05:26:22;;;;;;;10.90;4.85;;;9.10;99.90;;;;;;5044542;28;20025;-72
2021/03/30 05:28:47;;;;;;;14.05;5.30;;;9.10;99.90;;;;;;5044550;28;20029;-74
2021/03/30 05:31:14;;;;;;;18.20;5.47;;;9.10;99.90;;;;;;5044781;28;20036;-73
2021/03/30 05:33:39;;;;;;;10.98;5.00;;;9.10;99.90;;;;;;5043425;28;20029;-75
2021/03/30 05:36:05;;;;;;;20.50;8.75;;;9.10;99.90;;;;;;5044587;28;20036;-74
2021/03/30 05:38:31;;;;;;;25.75;7.05;;;9.10;99.90;;;;;;5042835;28;20045;-74
2021/03/30 05:40:57;;;;;;;19.52;8.13;;;9.20;99.90;;;;;;5044495;28;20021;-74
2021/03/30 05:43:22;;;;;;;20.05;6.22;;;9.10;99.90;;;;;;5043039;28;20091;-75
2021/03/30 05:45:49;;;;;;;12.38;5.25;;;9.20;99.90;;;;;;5044572;28;20026;-75
2021/03/30 05:48:17;;;;;;;12.60;4.95;;;9.30;99.90;;;;;;5044373;28;20030;-76
2021/03/30 05:50:43;;;;;;;16.15;4.95;;;9.30;99.90;;;;;;5044423;28;20340;-76
2021/03/30 05:53:16;;;;;;;13.38;4.68;;;9.30;99.90;;;;;;5044208;28;20018;-74
2021/03/30 05:55:50;;;;;;;15.25;4.40;;;9.40;99.90;;;;;;5044451;28;20496;-74
2021/03/30 05:58:17;;;;;;;10.05;4.72;;;9.40;99.90;;;;;;5044154;28;20036;-74
2021/03/30 06:00:47;;;;;;;12.63;5.45;;;9.40;99.90;;;;;;5044094;28;20093;-75
2021/03/30 06:03:14;;;;;;;8.82;4.93;;;9.60;99.90;;;;;;5044089;28;20037;-74
2021/03/30 06:05:41;;;;;;;12.70;4.90;;;9.50;99.90;;;;;;5042780;28;20093;-74
2021/03/30 06:08:08;;;;;;;15.32;4.60;;;9.50;99.90;;;;;;5044187;28;20021;-74
2021/03/30 06:10:35;;;;;;;8.88;3.90;;;9.60;99.90;;;;;;5043821;28;20081;-73
2021/03/30 06:13:04;;;;;;;8.70;4.55;;;9.60;99.90;;;;;;5044180;28;20021;-72
2021/03/30 06:15:32;;;;;;;15.88;4.18;;;9.70;99.90;;;;;;5044166;28;20033;-73
2021/03/30 06:18:00;;;;;;;15.27;4.18;;;9.70;99.90;;;;;;5043840;28;20045;-72
2021/03/30 06:20:34;;;;;;;8.50;3.72;;;9.80;99.90;;;;;;5044340;28;20053;-74
2021/03/30 06:23:07;;;;;;;9.93;3.90;;;9.80;99.90;;;;;;5043977;28;20049;-74
2021/03/30 06:25:52;;;;;;;9.73;4.32;;;9.90;99.90;;;;;;5044053;28;20033;-74
2021/03/30 06:28:20;;;;;;;8.45;3.92;;;9.90;99.90;;;;;;5044116;28;20034;-75
2021/03/30 06:31:21;;;;;;;11.23;4.13;;;10.00;99.90;;;;;;5044033;28;20081;-75
2021/03/30 06:33:58;;;;;;;14.75;4.25;;;10.10;99.90;;;;;;5061194;28;20033;-74
2021/03/30 06:36:32;;;;;;;6.22;3.03;;;10.10;99.90;;;;;;5040745;28;20390;-74
2021/03/30 06:39:07;;;;;;;6.72;3.53;;;10.20;99.90;;;;;;5034445;28;20021;-73
2021/03/30 06:41:56;;;;;;;7.38;3.53;;;10.30;99.90;;;;;;5038714;28;20045;-73
2021/03/30 06:44:26;;;;;;;14.23;4.80;;;10.30;99.90;;;;;;5039843;28;20044;-74
2021/03/30 06:47:05;;;;;;;8.95;4.20;;;10.50;99.90;;;;;;5029005;28;20029;-73
2021/03/30 06:49:35;;;;;;;15.90;4.10;;;10.50;99.90;;;;;;5030278;28;20102;-73
2021/03/30 06:52:14;;;;;;;6.63;4.00;;;10.60;99.90;;;;;;5043966;28;20033;-73
2021/03/30 06:54:54;;;;;;;9.27;3.92;;;10.70;99.90;;;;;;5043771;28;20037;-73
2021/03/30 06:57:35;;;;;;;8.48;3.63;;;10.80;99.90;;;;;;5037495;28;20030;-73
2021/03/30 07:00:05;;;;;;;7.28;3.83;;;10.90;99.90;;;;;;5023780;28;20033;-73
2021/03/30 07:02:31;;;;;;;10.95;3.58;;;11.00;99.90;;;;;;5026302;28;20426;-75
2021/03/30 07:04:57;;;;;;;12.60;4.03;;;11.20;99.90;;;;;;5040710;28;20088;-74
2021/03/30 07:07:23;;;;;;;14.00;3.60;;;11.20;99.90;;;;;;5042955;28;20030;-76
2021/03/30 07:09:52;;;;;;;25.40;4.63;;;11.30;99.90;;;;;;5042050;28;20463;-74
2021/03/30 07:12:23;;;;;;;9.82;4.20;;;11.40;99.90;;;;;;5043671;28;20477;-74
2021/03/30 07:14:50;;;;;;;22.20;4.53;;;11.50;99.90;;;;;;5041116;28;20025;-74
2021/03/30 07:17:27;;;;;;;10.40;4.22;;;11.60;99.90;;;;;;5036266;28;20049;-75
2021/03/30 07:19:55;;;;;;;11.90;4.00;;;11.70;99.90;;;;;;5030930;28;20056;-74
2021/03/30 07:22:24;;;;;;;10.85;3.92;;;11.80;99.90;;;;;;5047146;28;20037;-74
2021/03/30 07:24:55;;;;;;;13.57;4.60;;;11.90;99.90;;;;;;5047022;28;20533;-74
2021/03/30 07:27:27;;;;;;;19.75;4.03;;;12.00;99.90;;;;;;5041914;28;20040;-73
2021/03/30 07:29:56;;;;;;;6.53;3.22;;;12.10;99.90;;;;;;5027153;28;20036;-73
2021/03/30 07:32:53;;;;;;;7.82;3.95;;;12.20;99.90;;;;;;5026571;28;20445;-74
2021/03/30 07:35:21;;;;;;;9.10;3.45;;;12.40;99.90;;;;;;5030310;28;20042;-75
2021/03/30 07:38:03;;;;;;;7.13;3.92;;;12.40;99.90;;;;;;5033732;28;20033;-75
2021/03/30 07:40:29;;;;;;;6.55;3.40;;;12.50;99.90;;;;;;5030229;28;20030;-75
2021/03/30 07:42:56;;;;;;;8.32;3.50;;;12.70;99.90;;;;;;5038919;28;20096;-75
2021/03/30 07:45:29;;;;;;;9.95;3.47;;;12.70;99.90;;;;;;5026539;28;20018;-74
2021/03/30 07:47:57;;;;;;;10.82;3.05;;;12.90;99.90;;;;;;5026666;28;20045;-73
2021/03/30 07:50:43;;;;;;;8.68;3.67;;;13.00;99.90;;;;;;5026436;28;20022;-74
2021/03/30 07:53:39;;;;;;;12.95;4.18;;;13.20;99.90;;;;;;5025132;28;20065;-74
2021/03/30 07:56:06;;;;;;;6.63;3.03;;;13.30;99.90;;;;;;5041597;28;20034;-74
2021/03/30 07:58:48;;;;;;;8.80;4.15;;;13.40;99.90;;;;;;5026478;28;20040;-74
2021/03/30 08:01:16;;;;;;;9.55;4.43;;;13.50;99.90;;;;;;5029734;28;20048;-76
2021/03/30 08:03:44;;;;;;;8.80;3.95;;;13.70;99.90;;;;;;5032570;28;20065;-74
2021/03/30 08:06:19;;;;;;;9.95;3.45;;;13.80;99.90;;;;;;5058060;28;20039;-73
2021/03/30 08:08:50;;;;;;;11.93;3.03;;;13.90;99.90;;;;;;5044682;28;20606;-74
2021/03/30 08:11:16;;;;;;;7.57;3.08;;;14.10;99.90;;;;;;5045872;28;20029;-74
2021/03/30 08:13:50;;;;;;;11.68;2.70;;;14.30;99.90;;;;;;5045024;28;20036;-74
2021/03/30 08:16:19;;;;;;;6.75;3.10;;;14.50;99.90;;;;;;5046255;28;20030;-75
2021/03/30 08:18:47;;;;;;;5.68;2.80;;;14.70;99.90;;;;;;5044043;28;20053;-74
2021/03/30 08:21:14;;;;;;;8.80;2.95;;;14.90;99.90;;;;;;5046365;28;20366;-74
2021/03/30 08:24:07;;;;;;;5.25;2.63;;;15.00;99.90;;;;;;5041351;28;20191;-73
2021/03/30 08:26:36;;;;;;;3.83;2.40;;;15.30;99.90;;;;;;5033214;28;20069;-74
2021/03/30 08:29:08;;;;;;;8.82;2.88;;;15.40;99.90;;;;;;5028804;28;20045;-74
2021/03/30 08:31:41;;;;;;;8.15;3.22;;;15.40;99.90;;;;;;5031223;28;20482;-74
2021/03/30 08:34:17;;;;;;;3.25;1.70;;;15.50;99.90;;;;;;5039480;28;20025;-75
2021/03/30 08:36:44;;;;;;;5.93;2.53;;;15.60;99.90;;;;;;5046209;28;20053;-73
2021/03/30 08:39:22;;;;;;;7.50;2.75;;;15.60;99.90;;;;;;5045889;28;20595;-74
2021/03/30 08:41:57;;;;;;;7.75;2.22;;;15.70;99.90;;;;;;5045738;28;20033;-75
2021/03/30 08:44:32;;;;;;;9.93;2.97;;;15.90;99.90;;;;;;5045323;28;20029;-74
2021/03/30 08:46:59;;;;;;;4.22;1.88;;;16.10;99.90;;;;;;5045233;28;20041;-73
2021/03/30 08:49:28;;;;;;;5.07;2.50;;;16.40;99.90;;;;;;5045621;28;20044;-74
2021/03/30 08:52:07;;;;;;;1.95;1.55;;;16.70;99.90;;;;;;5044055;28;20022;-74
2021/03/30 08:54:39;;;;;;;2.70;1.75;;;16.70;99.90;;;;;;5045505;28;20036;-73
2021/03/30 08:57:08;;;;;;;4.63;2.15;;;16.90;99.90;;;;;;5045545;28;20101;-74
2021/03/30 08:59:35;;;;;;;9.70;2.33;;;17.20;99.90;;;;;;5045315;28;20048;-73
2021/03/30 09:02:00;;;;;;;4.38;2.17;;;17.30;99.90;;;;;;5037044;28;20104;-73
2021/03/30 09:04:34;;;;;;;8.73;2.45;;;17.40;99.90;;;;;;5036112;28;20056;-73
2021/03/30 09:06:59;;;;;;;3.22;1.85;;;17.50;99.90;;;;;;5044239;28;20093;-72
2021/03/30 09:09:33;;;;;;;9.95;2.50;;;17.50;99.90;;;;;;5034961;28;20041;-73
2021/03/30 09:11:59;;;;;;;2.77;1.73;;;17.50;99.90;;;;;;5025148;28;20018;-73
2021/03/30 09:14:25;;;;;;;7.35;2.05;;;17.50;99.90;;;;;;5043121;28;20041;-75
2021/03/30 09:16:52;;;;;;;2.40;1.45;;;17.70;99.90;;;;;;5043171;28;20061;-73
2021/03/30 09:24:54;;;;;;;1.70;1.33;;;18.20;99.90;;;;;;5041167;28;20049;-74
2021/03/30 09:27:25;;;;;;;3.30;1.77;;;18.20;99.90;;;;;;5034252;28;20099;-74
2021/03/30 09:29:57;;;;;;;5.82;2.20;;;18.20;99.90;;;;;;5023530;28;20079;-73
2021/03/30 09:32:25;;;;;;;4.15;1.80;;;18.20;99.90;;;;;;5039572;28;20026;-74
2021/03/30 09:34:51;;;;;;;6.10;2.05;;;18.20;99.90;;;;;;5030257;28;20032;-74
2021/03/30 09:37:18;;;;;;;2.92;2.17;;;18.30;99.90;;;;;;5035429;28;20025;-75
2021/03/30 09:39:45;;;;;;;4.78;1.95;;;18.40;99.90;;;;;;5032600;28;20037;-74
2021/03/30 09:42:12;;;;;;;5.68;1.77;;;18.40;99.90;;;;;;5043216;28;20025;-74
2021/03/30 09:44:45;;;;;;;8.77;2.25;;;18.40;99.90;;;;;;5028746;28;20030;-75
2021/03/30 09:47:13;;;;;;;4.57;2.05;;;18.70;99.90;;;;;;5040063;28;20033;-75
2021/03/30 09:49:42;;;;;;;6.07;2.20;;;18.80;99.90;;;;;;5035018;28;20033;-73
2021/03/30 09:52:09;;;;;;;4.00;2.10;;;19.10;99.90;;;;;;5039627;28;20030;-76
2021/03/30 09:54:42;;;;;;;3.65;1.83;;;19.40;99.90;;;;;;5023916;28;21130;-75
2021/03/30 09:57:21;;;;;;;2.35;1.45;;;19.60;99.90;;;;;;5023786;28;20049;-74
2021/03/30 09:59:48;;;;;;;2.13;1.45;;;19.70;99.90;;;;;;5023854;28;20030;-74
2021/03/30 10:02:21;;;;;;;3.05;1.70;;;19.90;99.90;;;;;;5024272;28;20057;-75
2021/03/30 10:04:55;;;;;;;4.55;1.98;;;20.10;99.90;;;;;;5024275;28;20048;-74
2021/03/30 10:07:22;;;;;;;3.88;2.13;;;20.40;99.90;;;;;;5022610;28;20064;-75
2021/03/30 10:10:15;;;;;;;2.70;1.42;;;20.60;99.90;;;;;;5021855;28;20052;-75
2021/03/30 10:12:50;;;;;;;4.88;2.25;;;20.70;99.90;;;;;;5027485;28;20029;-74
2021/03/30 10:15:29;;;;;;;10.18;2.20;;;20.90;99.90;;;;;;5042099;28;20118;-74
2021/03/30 10:17:55;;;;;;;5.30;2.15;;;21.10;99.90;;;;;;5024324;28;20084;-74
2021/03/30 10:20:20;;;;;;;4.00;1.77;;;21.10;99.90;;;;;;5029928;28;20037;-74
2021/03/30 10:22:49;;;;;;;2.90;1.65;;;21.30;99.90;;;;;;5023934;28;20037;-75
2021/03/30 10:25:18;;;;;;;1.98;1.20;;;21.30;99.90;;;;;;5032407;28;20029;-73
2021/03/30 10:28:02;;;;;;;3.42;1.95;;;21.30;99.90;;;;;;5043895;28;20056;-75
2021/03/30 10:30:39;;;;;;;2.55;1.50;;;21.30;99.90;;;;;;5042164;28;20025;-73
2021/03/30 10:33:17;;;;;;;2.15;1.67;;;21.50;99.90;;;;;;5043535;28;20032;-73
2021/03/30 10:35:43;;;;;;;4.00;1.15;;;21.60;99.90;;;;;;5034553;28;20105;-74
2021/03/30 10:38:09;;;;;;;6.22;2.10;;;21.70;99.90;;;;;;5023898;28;20029;-75
2021/03/30 10:40:38;;;;;;;10.82;1.70;;;21.80;99.90;;;;;;5023794;28;20029;-73
2021/03/30 10:43:36;;;;;;;3.63;1.38;;;21.70;99.90;;;;;;5023407;28;20044;-74
2021/03/30 10:46:17;;;;;;;11.68;2.03;;;22.00;99.90;;;;;;5034045;28;20168;-75
2021/03/30 10:49:05;;;;;;;2.17;1.63;;;22.20;99.90;;;;;;5033145;28;20026;-73
2021/03/30 10:51:38;;;;;;;2.53;1.40;;;22.20;99.90;;;;;;5045944;28;20030;-75
2021/03/30 10:54:06;;;;;;;3.03;1.63;;;22.30;99.90;;;;;;5036185;28;20026;-74
2021/03/30 10:56:32;;;;;;;3.00;1.77;;;22.40;99.90;;;;;;5027469;28;20120;-75
2021/03/30 10:58:58;;;;;;;2.85;1.52;;;22.40;99.90;;;;;;5026258;28;20037;-72
2021/03/30 11:01:24;;;;;;;5.07;1.60;;;22.40;99.90;;;;;;5027578;28;20022;-73
2021/03/30 11:03:50;;;;;;;3.08;1.48;;;22.50;99.90;;;;;;5027471;28;20108;-75
2021/03/30 11:06:17;;;;;;;4.43;1.83;;;22.50;99.90;;;;;;5043497;28;20478;-75
2021/03/30 11:08:43;;;;;;;4.45;2.03;;;22.70;99.90;;;;;;5047374;28;20034;-75
2021/03/30 11:11:08;;;;;;;3.97;1.88;;;22.80;99.90;;;;;;5045839;28;20116;-73
2021/03/30 11:13:36;;;;;;;5.68;2.15;;;22.90;99.90;;;;;;5045695;28;20053;-72
2021/03/30 11:16:01;;;;;;;3.92;1.90;;;22.80;99.90;;;;;;5046696;28;20109;-73
2021/03/30 11:18:27;;;;;;;4.03;2.15;;;22.90;99.90;;;;;;5047057;28;20049;-73
2021/03/30 11:20:53;;;;;;;3.65;1.90;;;23.20;99.90;;;;;;5047326;28;20105;-76
2021/03/30 11:23:21;;;;;;;8.32;2.13;;;23.40;99.90;;;;;;5042256;28;20048;-74
2021/03/30 11:25:50;;;;;;;5.90;1.90;;;23.60;99.90;;;;;;5027205;28;20109;-77
2021/03/30 11:28:18;;;;;;;2.95;1.70;;;23.80;99.90;;;;;;5027338;28;20116;-76
2021/03/30 11:35:47;;;;;;;3.10;1.95;;;23.90;99.90;;;;;;5027187;28;20026;-74
2021/03/30 11:38:13;;;;;;;5.65;1.90;;;24.00;99.90;;;;;;5027306;28;20124;-75
2021/03/30 11:40:39;;;;;;;5.07;2.60;;;24.10;99.90;;;;;;5027052;28;20478;-74
2021/03/30 11:43:05;;;;;;;5.57;1.95;;;24.20;99.90;;;;;;5027090;28;20400;-75
2021/03/30 11:45:31;;;;;;;2.53;1.40;;;24.20;99.90;;;;;;5029877;28;20033;-74
2021/03/30 11:47:57;;;;;;;2.33;1.38;;;24.00;99.90;;;;;;5046908;28;20029;-74
2021/03/30 11:50:22;;;;;;;2.60;1.55;;;24.10;99.90;;;;;;5047106;28;20033;-77
2021/03/30 11:52:48;;;;;;;3.95;1.77;;;24.10;98.70;;;;;;5045650;28;20063;-75
2021/03/30 11:55:15;;;;;;;5.55;1.90;;;24.20;99.90;;;;;;5046734;28;20030;-74
2021/03/30 11:57:47;;;;;;;11.02;1.98;;;24.30;99.90;;;;;;5046786;28;20022;-75
2021/03/30 12:00:16;;;;;;;2.67;1.45;;;24.10;96.90;;;;;;5046705;28;20473;-76
2021/03/30 12:02:41;;;;;;;3.63;1.52;;;24.10;99.60;;;;;;5044387;28;20057;-73
2021/03/30 12:05:08;;;;;;;5.55;1.67;;;24.40;99.00;;;;;;5045582;28;20025;-74
2021/03/30 12:07:34;;;;;;;4.25;1.48;;;24.80;99.60;;;;;;5045135;28;20037;-74
2021/03/30 12:09:59;;;;;;;2.33;1.50;;;25.10;98.60;;;;;;5043885;28;20529;-75
2021/03/30 12:12:25;;;;;;;3.72;1.67;;;25.20;95.40;;;;;;5045952;28;20105;-73
2021/03/30 12:14:51;;;;;;;1.92;1.40;;;25.30;95.90;;;;;;5046342;28;20057;-75
2021/03/30 12:17:18;;;;;;;2.88;1.80;;;25.40;96.60;;;;;;5046093;28;20045;-75
2021/03/30 12:19:44;;;;;;;11.52;1.48;;;25.70;95.40;;;;;;5043548;28;20030;-75
2021/03/30 12:22:15;;;;;;;3.70;1.50;;;25.70;91.90;;;;;;5045030;28;20057;-73
2021/03/30 12:24:41;;;;;;;5.10;1.40;;;25.30;95.20;;;;;;5044733;28;20029;-74
2021/03/30 12:27:10;;;;;;;3.28;1.98;;;25.50;92.90;;;;;;5046239;28;20033;-74
2021/03/30 12:29:41;;;;;;;13.02;2.03;;;25.70;95.00;;;;;;5044827;28;20398;-74
2021/03/30 12:32:12;;;;;;;2.65;1.65;;;25.90;91.70;;;;;;5046052;28;20029;-72
2021/03/30 12:34:41;;;;;;;6.22;1.73;;;26.20;91.50;;;;;;5046287;28;20029;-73
2021/03/30 12:37:10;;;;;;;6.25;1.70;;;26.20;90.40;;;;;;5045797;28;20034;-74
2021/03/30 12:39:36;;;;;;;4.05;1.75;;;26.40;90.40;;;;;;5045721;28;20101;-74
2021/03/30 12:42:01;;;;;;;4.72;1.70;;;26.40;87.80;;;;;;5045692;28;20056;-73
2021/03/30 12:44:27;;;;;;;3.50;1.92;;;26.40;91.00;;;;;;5044538;28;20052;-75
2021/03/30 12:46:53;;;;;;;5.97;1.50;;;26.70;89.80;;;;;;5045361;28;20029;-74
2021/03/30 12:49:21;;;;;;;5.22;2.08;;;26.80;88.80;;;;;;5045873;28;20040;-74
2021/03/30 12:51:49;;;;;;;5.38;2.17;;;27.00;86.50;;;;;;5045790;28;20026;-75
2021/03/30 12:54:18;;;;;;;3.28;2.15;;;26.60;89.80;;;;;;5045683;28;20108;-74
2021/03/30 12:56:48;;;;;;;3.42;1.40;;;26.80;86.70;;;;;;5045423;28;20040;-75
2021/03/30 12:59:14;;;;;;;3.67;1.67;;;27.00;81.10;;;;;;5045507;28;20036;-74
2021/03/30 13:01:42;;;;;;;4.53;1.85;;;27.20;86.10;;;;;;5045572;28;20042;-73
2021/03/30 13:04:09;;;;;;;15.88;2.40;;;27.40;72.70;;;;;;5044773;28;20119;-73
2021/03/30 13:06:34;;;;;;;3.60;1.73;;;27.20;77.80;;;;;;5044663;28;20099;-75
2021/03/30 13:09:00;;;;;;;2.88;1.55;;;27.20;79.70;;;;;;5045243;28;20120;-76